sensor_id;sensor_type;location;lat;lon;timestamp;temperature;humidity
18690;DHT22;9782;52.930;15.562;2023-07-13T14:27:53;27.60;23.20
18690;DHT22;9782;52.930;15.562;2023-07-13T14:30:23;27.70;23.90
18690;DHT22;9782;52.930;15.562;2023-07-13T14:32:49;27.60;24.10
18690;DHT22;9782;52.930;15.562;2023-07-13T14:35:18;27.70;23.50
18690;DHT22;9782;52.930;15.562;2023-07-13T14:37:46;27.70;24.70
18690;DHT22;9782;52.930;15.562;2023-07-13T14:40:14;27.90;25.30
18690;DHT22;9782;52.930;15.562;2023-07-13T14:42:42;28.00;26.60
18690;DHT22;9782;52.930;15.562;2023-07-13T14:45:14;28.10;27.20
18690;DHT22;9782;52.930;15.562;2023-07-13T14:47:42;28.20;26.80
18690;DHT22;9782;52.930;15.562;2023-07-13T14:50:14;28.40;27.40
18690;DHT22;9782;52.930;15.562;2023-07-13T14:52:43;28.70;27.20
18690;DHT22;9782;52.930;15.562;2023-07-13T14:55:11;28.90;25.60
18690;DHT22;9782;52.930;15.562;2023-07-13T14:57:38;28.90;27.20
18690;DHT22;9782;52.930;15.562;2023-07-13T15:00:16;28.80;24.20
18690;DHT22;9782;52.930;15.562;2023-07-13T15:02:44;28.80;26.30
18690;DHT22;9782;52.930;15.562;2023-07-13T15:05:17;29.00;26.40
18690;DHT22;9782;52.930;15.562;2023-07-13T15:07:45;29.20;23.20
18690;DHT22;9782;52.930;15.562;2023-07-13T15:10:14;29.20;23.30
18690;DHT22;9782;52.930;15.562;2023-07-13T15:12:41;29.00;22.80
18690;DHT22;9782;52.930;15.562;2023-07-13T15:15:08;28.90;23.30
18690;DHT22;9782;52.930;15.562;2023-07-13T15:17:38;28.80;21.80
18690;DHT22;9782;52.930;15.562;2023-07-13T15:20:15;28.60;22.50
18690;DHT22;9782;52.930;15.562;2023-07-13T15:22:44;28.50;22.30
18690;DHT22;9782;52.930;15.562;2023-07-13T15:25:16;28.40;23.10
18690;DHT22;9782;52.930;15.562;2023-07-13T15:27:43;28.30;22.10
18690;DHT22;9782;52.930;15.562;2023-07-13T15:30:11;28.20;21.30
18690;DHT22;9782;52.930;15.562;2023-07-13T15:32:40;28.20;22.60
18690;DHT22;9782;52.930;15.562;2023-07-13T15:35:14;28.30;21.50
18690;DHT22;9782;52.930;15.562;2023-07-13T15:37:41;28.60;21.90
18690;DHT22;9782;52.930;15.562;2023-07-13T15:40:11;28.70;20.40
18690;DHT22;9782;52.930;15.562;2023-07-13T15:42:39;28.60;39.60
18690;DHT22;9782;52.930;15.562;2023-07-13T15:45:15;28.50;20.60
18690;DHT22;9782;52.930;15.562;2023-07-13T15:47:44;28.30;20.50
18690;DHT22;9782;52.930;15.562;2023-07-13T15:50:13;28.30;20.20
18690;DHT22;9782;52.930;15.562;2023-07-13T15:52:41;28.30;20.70
18690;DHT22;9782;52.930;15.562;2023-07-13T15:55:11;28.30;20.70
18690;DHT22;9782;52.930;15.562;2023-07-13T15:57:39;28.40;19.60
18690;DHT22;9782;52.930;15.562;2023-07-13T16:00:16;28.40;20.20
18690;DHT22;9782;52.930;15.562;2023-07-13T16:02:47;28.40;20.20
18690;DHT22;9782;52.930;15.562;2023-07-13T16:05:15;28.40;19.90
18690;DHT22;9782;52.930;15.562;2023-07-13T16:07:43;28.40;21.00
18690;DHT22;9782;52.930;15.562;2023-07-13T16:10:14;28.20;20.70
18690;DHT22;9782;52.930;15.562;2023-07-13T16:12:42;28.20;21.40
18690;DHT22;9782;52.930;15.562;2023-07-13T16:15:14;28.20;19.60
18690;DHT22;9782;52.930;15.562;2023-07-13T16:17:42;28.30;19.10
18690;DHT22;9782;52.930;15.562;2023-07-13T16:20:11;28.30;18.40
18690;DHT22;9782;52.930;15.562;2023-07-13T16:22:39;28.20;18.40
18690;DHT22;9782;52.930;15.562;2023-07-13T16:25:18;28.00;18.50
18690;DHT22;9782;52.930;15.562;2023-07-13T16:27:45;27.80;19.60
18690;DHT22;9782;52.930;15.562;2023-07-13T16:30:15;27.60;19.40
18690;DHT22;9782;52.930;15.562;2023-07-13T16:32:43;27.40;17.00
18690;DHT22;9782;52.930;15.562;2023-07-13T16:35:13;27.30;17.90
18690;DHT22;9782;52.930;15.562;2023-07-13T16:37:41;27.50;19.00
18690;DHT22;9782;52.930;15.562;2023-07-13T16:40:20;27.80;18.60
18690;DHT22;9782;52.930;15.562;2023-07-13T16:42:53;27.70;18.30
18690;DHT22;9782;52.930;15.562;2023-07-13T16:45:21;27.50;18.70
18690;DHT22;9782;52.930;15.562;2023-07-13T16:47:51;27.30;19.40
18690;DHT22;9782;52.930;15.562;2023-07-13T16:50:21;27.10;19.60
18690;DHT22;9782;52.930;15.562;2023-07-13T16:52:49;27.00;27.90
18690;DHT22;9782;52.930;15.562;2023-07-13T16:55:18;27.40;20.40
18690;DHT22;9782;52.930;15.562;2023-07-13T16:57:47;27.90;22.00
18690;DHT22;9782;52.930;15.562;2023-07-13T17:00:23;28.10;20.90
18690;DHT22;9782;52.930;15.562;2023-07-13T17:02:54;28.00;20.60
18690;DHT22;9782;52.930;15.562;2023-07-13T17:05:28;27.90;22.20
18690;DHT22;9782;52.930;15.562;2023-07-13T17:07:56;27.70;24.50
18690;DHT22;9782;52.930;15.562;2023-07-13T17:10:24;27.50;24.70
18690;DHT22;9782;52.930;15.562;2023-07-13T17:12:52;27.20;26.00
18690;DHT22;9782;52.930;15.562;2023-07-13T17:15:20;26.90;27.40
18690;DHT22;9782;52.930;15.562;2023-07-13T17:17:50;26.50;27.90
18690;DHT22;9782;52.930;15.562;2023-07-13T17:20:20;26.30;28.40
18690;DHT22;9782;52.930;15.562;2023-07-13T17:22:51;26.10;29.60
18690;DHT22;9782;52.930;15.562;2023-07-13T17:25:19;26.00;29.60
18690;DHT22;9782;52.930;15.562;2023-07-13T17:27:47;25.90;32.70
18690;DHT22;9782;52.930;15.562;2023-07-13T17:30:15;26.10;35.90
18690;DHT22;9782;52.930;15.562;2023-07-13T17:32:43;26.10;31.50
18690;DHT22;9782;52.930;15.562;2023-07-13T17:35:23;26.10;32.10
18690;DHT22;9782;52.930;15.562;2023-07-13T17:37:54;25.90;30.30
18690;DHT22;9782;52.930;15.562;2023-07-13T17:40:22;25.80;30.90
18690;DHT22;9782;52.930;15.562;2023-07-13T17:42:50;25.90;30.80
18690;DHT22;9782;52.930;15.562;2023-07-13T17:45:21;26.10;31.60
18690;DHT22;9782;52.930;15.562;2023-07-13T17:47:49;26.10;31.70
18690;DHT22;9782;52.930;15.562;2023-07-13T17:50:25;26.20;33.40
18690;DHT22;9782;52.930;15.562;2023-07-13T17:52:59;26.70;32.10
18690;DHT22;9782;52.930;15.562;2023-07-13T17:55:28;27.00;31.10
18690;DHT22;9782;52.930;15.562;2023-07-13T17:57:55;27.00;32.00
18690;DHT22;9782;52.930;15.562;2023-07-13T18:00:22;27.10;29.60
18690;DHT22;9782;52.930;15.562;2023-07-13T18:03:03;27.00;28.50
18690;DHT22;9782;52.930;15.562;2023-07-13T18:05:31;26.80;28.30
18690;DHT22;9782;52.930;15.562;2023-07-13T18:08:01;26.60;28.90
18690;DHT22;9782;52.930;15.562;2023-07-13T18:10:30;26.60;30.90
18690;DHT22;9782;52.930;15.562;2023-07-13T18:12:58;26.70;29.40
18690;DHT22;9782;52.930;15.562;2023-07-13T18:15:29;26.30;28.10
18690;DHT22;9782;52.930;15.562;2023-07-13T18:17:58;25.90;29.10
18690;DHT22;9782;52.930;15.562;2023-07-13T18:20:26;25.40;29.20
18690;DHT22;9782;52.930;15.562;2023-07-13T18:22:53;25.10;29.10
18690;DHT22;9782;52.930;15.562;2023-07-13T18:25:23;24.80;28.60
18690;DHT22;9782;52.930;15.562;2023-07-13T18:27:50;24.60;28.70
18690;DHT22;9782;52.930;15.562;2023-07-13T18:30:19;24.40;29.70
18690;DHT22;9782;52.930;15.562;2023-07-13T18:32:48;24.20;29.10
18690;DHT22;9782;52.930;15.562;2023-07-13T18:35:19;24.10;29.80
18690;DHT22;9782;52.930;15.562;2023-07-13T18:37:47;24.00;29.80
18690;DHT22;9782;52.930;15.562;2023-07-13T18:40:16;23.90;29.80
18690;DHT22;9782;52.930;15.562;2023-07-13T18:42:47;23.80;32.30
18690;DHT22;9782;52.930;15.562;2023-07-13T18:45:15;23.80;31.90
18690;DHT22;9782;52.930;15.562;2023-07-13T18:47:44;23.70;32.20
18690;DHT22;9782;52.930;15.562;2023-07-13T18:50:16;23.60;34.60
18690;DHT22;9782;52.930;15.562;2023-07-13T18:52:44;23.40;36.60
18690;DHT22;9782;52.930;15.562;2023-07-13T18:55:14;23.20;37.20
18690;DHT22;9782;52.930;15.562;2023-07-13T18:57:41;23.00;38.80
18690;DHT22;9782;52.930;15.562;2023-07-13T19:00:11;22.80;62.30
18690;DHT22;9782;52.930;15.562;2023-07-13T19:02:38;22.50;45.60
18690;DHT22;9782;52.930;15.562;2023-07-13T19:05:14;22.30;46.50
18690;DHT22;9782;52.930;15.562;2023-07-13T19:07:41;22.10;48.60
18690;DHT22;9782;52.930;15.562;2023-07-13T19:10:12;21.90;52.80
18690;DHT22;9782;52.930;15.562;2023-07-13T19:12:43;21.80;58.30
18690;DHT22;9782;52.930;15.562;2023-07-13T19:15:20;21.70;66.70
18690;DHT22;9782;52.930;15.562;2023-07-13T19:17:48;21.60;75.90
18690;DHT22;9782;52.930;15.562;2023-07-13T19:20:16;21.50;86.90
18690;DHT22;9782;52.930;15.562;2023-07-13T19:22:49;21.40;93.40
18690;DHT22;9782;52.930;15.562;2023-07-13T19:25:18;21.30;99.40
18690;DHT22;9782;52.930;15.562;2023-07-13T19:27:47;21.20;99.90
18690;DHT22;9782;52.930;15.562;2023-07-13T19:30:15;21.10;99.90
18690;DHT22;9782;52.930;15.562;2023-07-13T19:32:44;21.00;99.90
18690;DHT22;9782;52.930;15.562;2023-07-13T19:35:12;20.90;99.90
18690;DHT22;9782;52.930;15.562;2023-07-13T19:37:39;20.80;99.90
18690;DHT22;9782;52.930;15.562;2023-07-13T19:40:17;20.70;99.90
18690;DHT22;9782;52.930;15.562;2023-07-13T19:42:45;20.70;99.90
18690;DHT22;9782;52.930;15.562;2023-07-13T19:45:17;20.60;99.90
18690;DHT22;9782;52.930;15.562;2023-07-13T19:47:46;20.50;99.90
18690;DHT22;9782;52.930;15.562;2023-07-13T19:50:15;20.50;99.90
18690;DHT22;9782;52.930;15.562;2023-07-13T19:52:49;20.40;99.90
18690;DHT22;9782;52.930;15.562;2023-07-13T19:55:20;20.30;99.90
18690;DHT22;9782;52.930;15.562;2023-07-13T19:57:48;20.30;99.90
18690;DHT22;9782;52.930;15.562;2023-07-13T20:00:16;20.30;99.90
18690;DHT22;9782;52.930;15.562;2023-07-13T20:02:45;20.20;1.00
18690;DHT22;9782;52.930;15.562;2023-07-13T20:05:14;20.20;1.00
18690;DHT22;9782;52.930;15.562;2023-07-13T20:07:42;20.20;1.00
18690;DHT22;9782;52.930;15.562;2023-07-13T20:10:21;20.10;1.00
18690;DHT22;9782;52.930;15.562;2023-07-13T20:12:50;20.10;1.00
18690;DHT22;9782;52.930;15.562;2023-07-13T20:15:19;20.10;1.00
18690;DHT22;9782;52.930;15.562;2023-07-13T20:17:50;20.10;1.00
18690;DHT22;9782;52.930;15.562;2023-07-13T20:20:22;20.00;1.00
18690;DHT22;9782;52.930;15.562;2023-07-13T20:22:51;20.00;1.00
18690;DHT22;9782;52.930;15.562;2023-07-13T20:25:23;20.00;1.00
18690;DHT22;9782;52.930;15.562;2023-07-13T20:27:51;20.00;1.00
18690;DHT22;9782;52.930;15.562;2023-07-13T20:30:19;19.90;1.00
18690;DHT22;9782;52.930;15.562;2023-07-13T20:32:47;19.90;1.00
18690;DHT22;9782;52.930;15.562;2023-07-13T20:35:26;19.90;1.00
18690;DHT22;9782;52.930;15.562;2023-07-13T20:37:55;19.90;1.00
18690;DHT22;9782;52.930;15.562;2023-07-13T20:40:25;19.90;1.00
18690;DHT22;9782;52.930;15.562;2023-07-13T20:42:53;19.90;1.00
18690;DHT22;9782;52.930;15.562;2023-07-13T20:45:20;19.90;1.00
18690;DHT22;9782;52.930;15.562;2023-07-13T20:47:51;19.90;1.00
18690;DHT22;9782;52.930;15.562;2023-07-13T20:50:22;19.90;1.00
18690;DHT22;9782;52.930;15.562;2023-07-13T20:52:52;19.80;1.00
18690;DHT22;9782;52.930;15.562;2023-07-13T20:55:22;19.80;1.00
18690;DHT22;9782;52.930;15.562;2023-07-13T20:57:50;19.80;23.50
18690;DHT22;9782;52.930;15.562;2023-07-13T21:00:19;19.90;68.80
18690;DHT22;9782;52.930;15.562;2023-07-13T21:02:49;19.90;78.70
18690;DHT22;9782;52.930;15.562;2023-07-13T21:05:19;19.80;91.10
18690;DHT22;9782;52.930;15.562;2023-07-13T21:07:47;19.90;99.90
18690;DHT22;9782;52.930;15.562;2023-07-13T21:10:17;19.90;99.90
18690;DHT22;9782;52.930;15.562;2023-07-13T21:12:44;19.90;99.90
18690;DHT22;9782;52.930;15.562;2023-07-13T21:15:16;19.80;99.90
18690;DHT22;9782;52.930;15.562;2023-07-13T21:17:44;19.80;99.90
18690;DHT22;9782;52.930;15.562;2023-07-13T21:20:21;19.80;99.90
18690;DHT22;9782;52.930;15.562;2023-07-13T21:22:48;19.70;99.90
18690;DHT22;9782;52.930;15.562;2023-07-13T21:25:18;19.70;99.90
18690;DHT22;9782;52.930;15.562;2023-07-13T21:27:45;19.70;99.90
18690;DHT22;9782;52.930;15.562;2023-07-13T21:30:16;19.60;99.90
18690;DHT22;9782;52.930;15.562;2023-07-13T21:32:44;19.60;99.90
18690;DHT22;9782;52.930;15.562;2023-07-13T21:35:27;19.60;1.00
18690;DHT22;9782;52.930;15.562;2023-07-13T21:37:55;19.60;1.00
18690;DHT22;9782;52.930;15.562;2023-07-13T21:40:24;19.60;1.00
18690;DHT22;9782;52.930;15.562;2023-07-13T21:42:51;19.50;1.00
18690;DHT22;9782;52.930;15.562;2023-07-13T21:45:21;19.40;1.00
18690;DHT22;9782;52.930;15.562;2023-07-13T21:47:49;19.40;1.00
18690;DHT22;9782;52.930;15.562;2023-07-13T21:50:17;19.30;1.00
18690;DHT22;9782;52.930;15.562;2023-07-13T21:52:45;19.10;8.00
18690;DHT22;9782;52.930;15.562;2023-07-13T21:55:14;19.00;99.90
18690;DHT22;9782;52.930;15.562;2023-07-13T21:57:43;18.90;99.90
18690;DHT22;9782;52.930;15.562;2023-07-13T22:00:19;18.70;99.90
18690;DHT22;9782;52.930;15.562;2023-07-13T22:02:47;18.60;99.90
18690;DHT22;9782;52.930;15.562;2023-07-13T22:05:16;18.40;1.00
18690;DHT22;9782;52.930;15.562;2023-07-13T22:07:45;18.30;1.00
18690;DHT22;9782;52.930;15.562;2023-07-13T22:10:18;18.20;1.00
18690;DHT22;9782;52.930;15.562;2023-07-13T22:12:46;18.00;1.00
18690;DHT22;9782;52.930;15.562;2023-07-13T22:15:14;18.00;1.00
18690;DHT22;9782;52.930;15.562;2023-07-13T22:17:44;17.90;1.00
18690;DHT22;9782;52.930;15.562;2023-07-13T22:20:20;17.80;1.00
18690;DHT22;9782;52.930;15.562;2023-07-13T22:22:50;17.70;1.00
18690;DHT22;9782;52.930;15.562;2023-07-13T22:25:18;17.60;3.30
18690;DHT22;9782;52.930;15.562;2023-07-13T22:27:45;17.50;60.40
18690;DHT22;9782;52.930;15.562;2023-07-13T22:30:14;17.40;99.90
18690;DHT22;9782;52.930;15.562;2023-07-13T22:32:42;17.40;99.90
18690;DHT22;9782;52.930;15.562;2023-07-13T22:35:11;17.30;99.90
18690;DHT22;9782;52.930;15.562;2023-07-13T22:37:41;17.20;99.90
18690;DHT22;9782;52.930;15.562;2023-07-13T22:40:14;17.10;99.90
18690;DHT22;9782;52.930;15.562;2023-07-13T22:42:42;17.10;99.90
18690;DHT22;9782;52.930;15.562;2023-07-13T22:45:10;17.00;99.90
18690;DHT22;9782;52.930;15.562;2023-07-13T22:47:38;16.90;99.90
18690;DHT22;9782;52.930;15.562;2023-07-13T22:50:16;16.80;99.90
18690;DHT22;9782;52.930;15.562;2023-07-13T22:52:43;16.80;99.90
18690;DHT22;9782;52.930;15.562;2023-07-13T22:55:15;16.70;99.90
18690;DHT22;9782;52.930;15.562;2023-07-13T22:57:47;16.70;99.90
18690;DHT22;9782;52.930;15.562;2023-07-13T23:00:17;16.70;99.90
18690;DHT22;9782;52.930;15.562;2023-07-13T23:02:44;16.60;99.90
18690;DHT22;9782;52.930;15.562;2023-07-13T23:05:15;16.60;1.00
18690;DHT22;9782;52.930;15.562;2023-07-13T23:07:43;16.50;1.00
18690;DHT22;9782;52.930;15.562;2023-07-13T23:10:17;16.50;1.00
18690;DHT22;9782;52.930;15.562;2023-07-13T23:12:44;16.40;1.00
18690;DHT22;9782;52.930;15.562;2023-07-13T23:15:11;16.30;1.00
18690;DHT22;9782;52.930;15.562;2023-07-13T23:17:44;16.30;1.00
18690;DHT22;9782;52.930;15.562;2023-07-13T23:20:22;16.20;1.00
18690;DHT22;9782;52.930;15.562;2023-07-13T23:22:50;16.20;1.00
18690;DHT22;9782;52.930;15.562;2023-07-13T23:25:19;16.10;1.00
18690;DHT22;9782;52.930;15.562;2023-07-13T23:27:48;16.10;1.00
18690;DHT22;9782;52.930;15.562;2023-07-13T23:30:16;16.00;1.00
18690;DHT22;9782;52.930;15.562;2023-07-13T23:32:45;16.00;1.00
18690;DHT22;9782;52.930;15.562;2023-07-13T23:35:13;15.90;9.20
18690;DHT22;9782;52.930;15.562;2023-07-13T23:37:41;15.90;92.10
18690;DHT22;9782;52.930;15.562;2023-07-13T23:40:13;15.90;99.90
18690;DHT22;9782;52.930;15.562;2023-07-13T23:42:42;15.80;99.90
18690;DHT22;9782;52.930;15.562;2023-07-13T23:45:14;15.80;99.90
18690;DHT22;9782;52.930;15.562;2023-07-13T23:47:42;15.70;99.90
18690;DHT22;9782;52.930;15.562;2023-07-13T23:50:12;15.70;99.90
18690;DHT22;9782;52.930;15.562;2023-07-13T23:52:39;15.70;99.90
18690;DHT22;9782;52.930;15.562;2023-07-13T23:55:15;15.60;99.90
18690;DHT22;9782;52.930;15.562;2023-07-13T23:57:44;15.60;99.90
